createdAt,value
2023-03-16T02:44:40.579Z,1.10
2023-03-16T02:49:47.894Z,1.20
2023-03-16T02:54:54.666Z,0.90
2023-03-16T03:00:01.953Z,1.20
2023-03-16T03:05:10.311Z,1.10
2023-03-16T03:10:17.322Z,1.10
2023-03-16T03:15:24.465Z,1.10
2023-03-16T03:20:31.736Z,1.20
2023-03-16T03:25:38.861Z,1.10
2023-03-16T03:30:45.820Z,1.00
2023-03-16T03:36:02.677Z,1.10
2023-03-16T03:41:10.651Z,1.10
2023-03-16T03:46:17.653Z,1.00
2023-03-16T03:51:24.839Z,1.20
2023-03-16T03:56:31.828Z,1.40
2023-03-16T04:01:38.707Z,1.30
2023-03-16T04:06:45.420Z,1.40
2023-03-16T04:11:52.268Z,1.30
2023-03-16T04:16:59.247Z,1.10
2023-03-16T04:22:07.066Z,1.20
2023-03-16T04:27:13.867Z,1.20
2023-03-16T04:32:20.937Z,1.30
2023-03-16T04:37:27.694Z,1.10
2023-03-16T04:42:34.738Z,1.10
2023-03-16T04:47:41.955Z,1.20
2023-03-16T04:52:49.111Z,1.20
2023-03-16T04:57:55.824Z,1.10
2023-03-16T05:03:03.053Z,1.20
2023-03-16T05:08:11.538Z,0.80
2023-03-16T05:13:18.385Z,0.80
2023-03-16T05:18:26.119Z,0.70
2023-03-16T05:23:33.173Z,0.70
2023-03-16T05:28:40.546Z,0.80
2023-03-16T05:33:48.862Z,0.90
2023-03-16T05:38:56.039Z,0.70
2023-03-16T05:44:02.868Z,0.80
2023-03-16T05:49:10.574Z,0.90
2023-03-16T05:54:17.652Z,0.70
2023-03-16T05:59:24.656Z,0.60
2023-03-16T06:04:31.852Z,0.60
2023-03-16T06:09:38.839Z,0.60
2023-03-16T06:14:46.299Z,0.60
2023-03-16T06:19:53.269Z,0.60
2023-03-16T06:25:00.125Z,0.80
2023-03-16T06:30:09.969Z,0.60
2023-03-16T06:35:17.074Z,0.70
2023-03-16T06:40:23.829Z,0.70
2023-03-16T06:45:30.889Z,0.70
2023-03-16T06:50:38.155Z,0.80
2023-03-16T06:55:45.456Z,0.70
2023-03-16T07:00:53.814Z,0.90
2023-03-16T07:06:00.748Z,0.90
2023-03-16T07:11:07.689Z,1.00
2023-03-16T07:16:14.997Z,1.10
2023-03-16T07:21:22.418Z,1.10
2023-03-16T07:26:29.539Z,1.40
2023-03-16T07:31:37.254Z,1.40
2023-03-16T07:36:44.202Z,1.30
2023-03-16T07:41:51.726Z,1.70
2023-03-16T07:46:58.936Z,1.70
2023-03-16T07:52:05.814Z,1.90
2023-03-16T07:57:12.889Z,1.90
2023-03-16T08:02:22.154Z,2.10
2023-03-16T08:07:28.972Z,2.00
2023-03-16T08:12:36.415Z,2.20
2023-03-16T08:17:43.330Z,2.30
2023-03-16T08:22:50.080Z,2.50
2023-03-16T08:27:58.413Z,2.70
2023-03-16T08:33:05.995Z,2.80
2023-03-16T08:38:15.031Z,3.00
2023-03-16T08:43:22.229Z,3.40
2023-03-16T08:48:29.696Z,4.10
2023-03-16T08:53:37.440Z,4.90
2023-03-16T08:58:46.478Z,5.40
2023-03-16T09:03:53.562Z,5.70
2023-03-16T09:09:00.445Z,6.40
2023-03-16T09:14:07.418Z,6.70
2023-03-16T09:19:14.295Z,7.30
2023-03-16T09:24:21.463Z,7.20
2023-03-16T09:29:28.232Z,7.40
2023-03-16T09:34:35.535Z,6.60
2023-03-16T09:39:42.347Z,7.20
2023-03-16T09:45:15.925Z,6.60
2023-03-16T09:50:35.270Z,7.60
2023-03-16T09:55:40.981Z,7.60
2023-03-16T10:01:01.196Z,8.80
2023-03-16T10:06:11.352Z,8.70
2023-03-16T10:11:34.597Z,8.20
2023-03-16T10:17:01.144Z,7.40
2023-03-16T10:22:25.903Z,7.70
2023-03-16T10:27:42.430Z,8.90
2023-03-16T10:32:49.807Z,8.80
2023-03-16T10:37:57.650Z,7.50
2023-03-16T10:43:14.621Z,8.10
2023-03-16T10:48:23.718Z,8.10
2023-03-16T10:53:36.806Z,8.20
2023-03-16T10:58:46.498Z,9.70
2023-03-16T11:03:56.254Z,8.70
2023-03-16T11:09:10.315Z,9.40
2023-03-16T11:14:21.554Z,9.40
2023-03-16T11:19:37.984Z,9.90
2023-03-16T11:25:07.824Z,9.80
2023-03-16T11:30:40.308Z,9.60
2023-03-16T11:36:00.332Z,9.20
2023-03-16T11:41:15.809Z,9.30
2023-03-16T11:46:42.284Z,8.80
2023-03-16T11:51:57.000Z,9.50
2023-03-16T11:57:10.956Z,9.20
2023-03-16T12:02:45.653Z,9.30
2023-03-16T12:08:09.476Z,8.80
2023-03-16T12:13:38.927Z,9.00
2023-03-16T12:18:56.350Z,8.80
2023-03-16T12:24:14.164Z,9.00
2023-03-16T12:29:46.993Z,9.70
2023-03-16T12:34:58.906Z,9.40
2023-03-16T12:40:40.012Z,9.40
2023-03-16T12:45:57.079Z,9.20
2023-03-16T12:51:07.098Z,10.20
2023-03-16T12:56:20.474Z,9.50
2023-03-16T13:01:34.990Z,9.50
2023-03-16T13:06:50.796Z,9.40
2023-03-16T13:11:58.103Z,9.80
2023-03-16T13:17:21.686Z,9.00
2023-03-16T13:22:32.709Z,9.20
2023-03-16T13:27:41.772Z,9.30
2023-03-16T13:32:49.994Z,9.50
2023-03-16T13:38:08.774Z,9.00
2023-03-16T13:43:18.011Z,9.40
2023-03-16T13:48:25.787Z,9.50
2023-03-16T13:53:34.101Z,9.40
2023-03-16T13:58:42.596Z,9.60
2023-03-16T14:03:52.027Z,9.50
2023-03-16T14:09:03.552Z,9.00
2023-03-16T14:14:32.680Z,8.90
2023-03-16T14:19:44.957Z,8.70
2023-03-16T14:24:59.538Z,8.60
2023-03-16T14:30:20.727Z,9.40
2023-03-16T14:35:46.000Z,9.50
2023-03-16T14:41:05.582Z,9.50
2023-03-16T14:46:16.366Z,9.00
2023-03-16T14:51:23.266Z,8.90
2023-03-16T14:56:36.085Z,8.90
2023-03-16T15:01:43.231Z,8.90
2023-03-16T15:06:50.418Z,8.60
2023-03-16T15:11:58.583Z,8.50
2023-03-16T15:17:05.618Z,8.60
2023-03-16T15:22:14.731Z,8.50
2023-03-16T15:27:25.102Z,8.40
2023-03-16T15:32:33.917Z,8.10
2023-03-16T15:37:42.072Z,7.90
2023-03-16T15:42:49.118Z,8.00
2023-03-16T15:47:56.877Z,8.00
2023-03-16T15:53:29.486Z,7.70
2023-03-16T15:58:28.969Z,7.70
2023-03-16T16:03:36.003Z,7.50
2023-03-16T16:08:43.023Z,7.20
2023-03-16T16:13:50.738Z,7.20
2023-03-16T16:18:59.052Z,7.30
2023-03-16T16:24:06.747Z,7.20
2023-03-16T16:29:23.819Z,6.90
2023-03-16T16:34:31.420Z,6.80
2023-03-16T16:39:38.695Z,6.50
2023-03-16T16:44:46.282Z,6.50
2023-03-16T16:49:53.296Z,6.20
2023-03-16T16:55:00.517Z,5.90
2023-03-16T17:00:21.021Z,5.70
2023-03-16T17:05:31.898Z,5.40
2023-03-16T17:10:40.091Z,5.20
2023-03-16T17:15:47.025Z,4.90
2023-03-16T17:20:54.525Z,4.60
2023-03-16T17:26:25.846Z,4.50
2023-03-16T17:31:37.018Z,4.30
2023-03-16T17:36:43.995Z,4.10
2023-03-16T17:42:00.113Z,4.00
2023-03-16T17:47:13.642Z,3.90
2023-03-16T17:52:23.853Z,3.80
2023-03-16T17:57:35.637Z,3.60
2023-03-16T18:02:56.089Z,3.80
2023-03-16T18:08:29.342Z,3.70
2023-03-16T18:13:39.481Z,3.50
2023-03-16T18:18:47.015Z,3.50
2023-03-16T18:23:55.308Z,3.50
2023-03-16T18:29:02.053Z,3.40
2023-03-16T18:34:11.197Z,3.20
2023-03-16T18:39:21.918Z,3.40
2023-03-16T18:44:30.125Z,3.20
2023-03-16T18:49:39.169Z,3.00
2023-03-16T18:54:47.304Z,2.90
2023-03-16T18:59:54.965Z,3.00
2023-03-16T19:05:06.289Z,2.90
2023-03-16T19:10:26.625Z,3.10
2023-03-16T19:15:36.181Z,3.00
2023-03-16T19:20:47.834Z,3.20
2023-03-16T19:25:56.906Z,3.00
2023-03-16T19:31:22.828Z,2.90
2023-03-16T19:36:34.661Z,2.60
2023-03-16T19:41:42.366Z,2.70
2023-03-16T19:46:50.107Z,2.70
2023-03-16T19:51:58.361Z,2.80
2023-03-16T19:57:10.530Z,2.80
2023-03-16T20:02:28.124Z,2.70
2023-03-16T20:07:38.456Z,2.90
2023-03-16T20:12:45.636Z,2.70
2023-03-16T20:17:53.138Z,2.80
2023-03-16T20:23:00.121Z,2.90
2023-03-16T20:28:10.095Z,3.00
2023-03-16T20:33:24.195Z,3.00
2023-03-16T20:38:31.275Z,2.90
2023-03-16T20:43:39.195Z,2.80
2023-03-16T20:48:47.458Z,2.70
2023-03-16T20:53:54.630Z,2.70
2023-03-16T20:59:01.500Z,2.70
2023-03-16T21:04:11.438Z,2.60
2023-03-16T21:09:19.458Z,2.50
2023-03-16T21:14:27.532Z,2.40
2023-03-16T21:19:34.761Z,2.50
2023-03-16T21:24:41.543Z,2.30
2023-03-16T21:29:48.702Z,2.30
2023-03-16T21:34:56.870Z,2.30
2023-03-16T21:40:05.145Z,2.30
2023-03-16T21:45:13.197Z,2.20
2023-03-16T21:50:26.082Z,2.30
2023-03-16T21:55:34.096Z,2.30
2023-03-16T22:00:41.127Z,2.30
2023-03-16T22:05:48.582Z,2.10
2023-03-16T22:10:55.746Z,2.00
2023-03-16T22:16:04.011Z,1.90
2023-03-16T22:21:38.060Z,2.00
2023-03-16T22:26:45.108Z,2.00
2023-03-16T22:31:56.750Z,1.90
2023-03-16T22:37:05.947Z,1.70
2023-03-16T22:42:29.618Z,1.50
2023-03-16T22:47:37.350Z,1.50
2023-03-16T22:52:45.801Z,1.50
2023-03-16T22:57:57.292Z,1.30
2023-03-16T23:03:04.737Z,1.40
2023-03-16T23:08:18.997Z,1.50
2023-03-16T23:13:27.720Z,1.80
2023-03-16T23:18:35.295Z,1.60
2023-03-16T23:23:46.184Z,1.50
2023-03-16T23:28:53.193Z,1.40
2023-03-16T23:34:00.281Z,1.10
2023-03-16T23:39:07.671Z,1.10
2023-03-16T23:44:22.045Z,1.20
2023-03-16T23:49:33.308Z,1.10
2023-03-16T23:54:40.035Z,1.00
2023-03-16T23:59:46.896Z,1.20
